createdAt,value
2022-09-24T00:00:11.690Z,12.85
2022-09-24T00:01:15.839Z,12.85
2022-09-24T00:02:11.765Z,12.87
2022-09-24T00:03:11.726Z,12.90
2022-09-24T00:04:11.867Z,12.91
2022-09-24T00:05:11.623Z,12.93
2022-09-24T00:06:11.599Z,12.93
2022-09-24T00:07:11.607Z,12.93
2022-09-24T00:08:11.567Z,12.94
2022-09-24T00:09:11.581Z,12.93
2022-09-24T00:10:11.588Z,12.91
2022-09-24T00:11:11.547Z,12.93
2022-09-24T00:12:11.552Z,12.93
2022-09-24T00:13:11.528Z,12.93
2022-09-24T00:14:11.617Z,12.94
2022-09-24T00:15:11.510Z,12.91
2022-09-24T00:16:11.553Z,12.93
2022-09-24T00:17:11.492Z,12.94
2022-09-24T00:18:11.478Z,12.94
2022-09-24T00:19:11.469Z,12.94
2022-09-24T00:20:11.442Z,12.94
2022-09-24T00:21:11.447Z,12.98
2022-09-24T00:22:11.438Z,13.00
2022-09-24T00:23:11.420Z,13.00
2022-09-24T00:24:11.504Z,13.03
2022-09-24T00:25:11.466Z,13.05
2022-09-24T00:26:11.382Z,13.05
2022-09-24T00:27:11.399Z,13.08
2022-09-24T00:28:11.360Z,13.09
2022-09-24T00:29:11.353Z,13.08
2022-09-24T00:30:11.329Z,13.09
2022-09-24T00:31:11.360Z,13.11
2022-09-24T00:32:11.391Z,13.08
2022-09-24T00:33:11.303Z,13.08
2022-09-24T00:34:11.428Z,13.08
2022-09-24T00:35:11.286Z,13.08
2022-09-24T00:36:11.272Z,13.08
2022-09-24T00:37:11.272Z,13.09
2022-09-24T00:38:11.241Z,13.08
2022-09-24T00:39:11.242Z,13.11
2022-09-24T00:40:11.284Z,13.12
2022-09-24T00:41:11.212Z,13.18
2022-09-24T00:42:11.192Z,13.20
2022-09-24T00:43:11.199Z,13.23
2022-09-24T00:44:11.255Z,13.23
2022-09-24T00:45:11.172Z,13.23
2022-09-24T00:46:11.209Z,13.27
2022-09-24T00:47:11.187Z,13.30
2022-09-24T00:48:11.143Z,13.30
2022-09-24T00:49:11.124Z,13.31
2022-09-24T00:50:11.104Z,13.33
2022-09-24T00:51:11.103Z,13.31
2022-09-24T00:52:11.079Z,13.33
2022-09-24T00:53:11.084Z,13.31
2022-09-24T00:54:11.112Z,13.31
2022-09-24T00:55:11.072Z,13.33
2022-09-24T00:56:11.045Z,13.33
2022-09-24T00:57:11.031Z,13.37
2022-09-24T00:58:11.003Z,13.37
2022-09-24T00:59:11.024Z,13.37
2022-09-24T01:00:10.997Z,13.38
2022-09-24T01:01:11.126Z,13.35
2022-09-24T01:02:11.033Z,13.37
2022-09-24T01:03:10.983Z,13.31
2022-09-24T01:04:11.232Z,13.31
2022-09-24T01:05:10.944Z,13.30
2022-09-24T01:06:10.926Z,13.28
2022-09-24T01:07:10.924Z,13.27
2022-09-24T01:08:10.906Z,13.23
2022-09-24T01:09:10.909Z,13.22
2022-09-24T01:10:10.883Z,13.19
2022-09-24T01:11:10.876Z,13.18
2022-09-24T01:12:10.884Z,13.18
2022-09-24T01:13:10.848Z,13.16
2022-09-24T01:14:10.853Z,13.15
2022-09-24T01:15:10.839Z,13.12
2022-09-24T01:16:10.866Z,13.11
2022-09-24T01:17:10.805Z,13.09
2022-09-24T01:18:10.788Z,13.04
2022-09-24T01:19:10.805Z,13.03
2022-09-24T01:20:10.788Z,13.01
2022-09-24T01:21:11.704Z,13.03
2022-09-24T01:22:10.736Z,12.98
2022-09-24T01:23:10.739Z,13.00
2022-09-24T01:24:10.755Z,13.03
2022-09-24T01:25:10.707Z,13.03
2022-09-24T01:26:10.706Z,13.01
2022-09-24T01:27:10.716Z,13.01
2022-09-24T01:28:10.677Z,13.01
2022-09-24T01:29:10.668Z,13.01
2022-09-24T01:30:10.648Z,13.00
2022-09-24T01:31:10.737Z,12.98
2022-09-24T01:32:10.629Z,13.00
2022-09-24T01:33:10.629Z,12.98
2022-09-24T01:34:10.703Z,12.98
2022-09-24T01:35:10.609Z,12.98
2022-09-24T01:36:10.597Z,12.98
2022-09-24T01:37:10.576Z,12.97
2022-09-24T01:38:10.577Z,12.98
2022-09-24T01:39:10.556Z,12.97
2022-09-24T01:40:10.564Z,12.97
2022-09-24T01:41:10.720Z,12.95
2022-09-24T01:42:10.511Z,12.93
2022-09-24T01:43:10.528Z,12.93
2022-09-24T01:44:10.549Z,12.93
2022-09-24T01:45:10.496Z,12.91
2022-09-24T01:46:10.520Z,12.94
2022-09-24T01:47:10.469Z,12.93
2022-09-24T01:48:10.450Z,12.94
2022-09-24T01:49:10.448Z,12.97
2022-09-24T01:50:10.429Z,12.98
2022-09-24T01:51:10.423Z,13.03
2022-09-24T01:52:10.436Z,13.08
2022-09-24T01:53:10.408Z,13.09
2022-09-24T01:54:10.439Z,13.11
2022-09-24T01:55:10.368Z,13.13
2022-09-24T01:56:10.352Z,13.13
2022-09-24T01:57:10.381Z,13.13
2022-09-24T01:58:10.343Z,13.18
2022-09-24T01:59:10.348Z,13.19
2022-09-24T02:00:10.308Z,13.20
2022-09-24T02:01:11.330Z,13.22
2022-09-24T02:02:10.315Z,13.22
2022-09-24T02:03:10.301Z,13.22
2022-09-24T02:04:10.272Z,13.22
2022-09-24T02:05:10.261Z,13.25
2022-09-24T02:06:10.253Z,13.23
2022-09-24T02:07:10.237Z,13.25
2022-09-24T02:08:10.225Z,13.23
2022-09-24T02:09:10.233Z,13.23
2022-09-24T02:10:10.210Z,13.22
2022-09-24T02:11:10.193Z,13.20
2022-09-24T02:12:10.202Z,13.18
2022-09-24T02:13:10.174Z,13.18
2022-09-24T02:14:10.229Z,13.18
2022-09-24T02:15:10.153Z,13.16
2022-09-24T02:16:10.167Z,13.13
2022-09-24T02:17:10.122Z,13.12
2022-09-24T02:18:10.104Z,13.11
2022-09-24T02:19:10.114Z,13.11
2022-09-24T02:20:10.102Z,13.09
2022-09-24T02:21:10.105Z,13.05
2022-09-24T02:22:10.062Z,13.05
2022-09-24T02:23:10.078Z,13.05
2022-09-24T02:24:10.063Z,13.08
2022-09-24T02:25:10.068Z,13.09
2022-09-24T02:26:10.039Z,13.12
2022-09-24T02:27:10.033Z,13.12
2022-09-24T02:28:10.010Z,13.16
2022-09-24T02:29:10.023Z,13.15
2022-09-24T02:30:09.971Z,13.15
2022-09-24T02:31:10.085Z,13.13
2022-09-24T02:32:09.957Z,13.16
2022-09-24T02:33:09.952Z,13.16
2022-09-24T02:34:09.926Z,13.16
2022-09-24T02:35:09.926Z,13.16
2022-09-24T02:36:09.914Z,13.16
2022-09-24T02:37:09.902Z,13.18
2022-09-24T02:38:09.974Z,13.16
2022-09-24T02:39:09.874Z,13.18
2022-09-24T02:40:09.911Z,13.18
2022-09-24T02:41:09.866Z,13.18
2022-09-24T02:42:09.833Z,13.16
2022-09-24T02:43:09.835Z,13.15
2022-09-24T02:44:09.813Z,13.13
2022-09-24T02:45:09.807Z,13.12
2022-09-24T02:46:09.812Z,13.11
2022-09-24T02:47:09.806Z,13.12
2022-09-24T02:48:09.781Z,13.11
2022-09-24T02:49:09.754Z,13.11
2022-09-24T02:50:09.754Z,13.08
2022-09-24T02:51:09.749Z,13.05
2022-09-24T02:52:09.738Z,13.05
2022-09-24T02:53:09.723Z,13.05
2022-09-24T02:54:09.732Z,13.05
2022-09-24T02:55:09.706Z,13.05
2022-09-24T02:56:09.688Z,13.05
2022-09-24T02:57:09.679Z,13.04
2022-09-24T02:58:09.666Z,13.03
2022-09-24T02:59:09.638Z,13.04
2022-09-24T03:00:09.646Z,13.04
2022-09-24T03:01:09.629Z,13.04
2022-09-24T03:02:09.750Z,13.03
2022-09-24T03:03:09.686Z,13.00
2022-09-24T03:04:09.728Z,12.98
2022-09-24T03:05:09.586Z,12.98
2022-09-24T03:06:09.586Z,12.97
2022-09-24T03:07:09.570Z,12.95
2022-09-24T03:08:09.538Z,12.93
2022-09-24T03:09:09.533Z,12.91
2022-09-24T03:10:09.590Z,12.91
2022-09-24T03:11:09.518Z,12.91
2022-09-24T03:12:09.511Z,12.90
2022-09-24T03:13:09.478Z,12.90
2022-09-24T03:14:09.547Z,12.87
2022-09-24T03:15:09.458Z,12.85
2022-09-24T03:16:09.545Z,12.83
2022-09-24T03:17:09.447Z,12.80
2022-09-24T03:18:09.431Z,12.79
2022-09-24T03:19:09.421Z,12.78
2022-09-24T03:20:09.429Z,12.76
2022-09-24T03:21:09.399Z,12.73
2022-09-24T03:22:09.439Z,12.73
2022-09-24T03:23:09.363Z,12.73
2022-09-24T03:24:09.424Z,12.70
2022-09-24T03:25:09.348Z,12.70
2022-09-24T03:26:09.351Z,12.68
2022-09-24T03:27:09.340Z,12.68
2022-09-24T03:28:09.319Z,12.67
2022-09-24T03:29:09.299Z,12.65
2022-09-24T03:30:09.315Z,12.65
2022-09-24T03:31:09.370Z,12.65
2022-09-24T03:32:09.300Z,12.65
2022-09-24T03:33:09.259Z,12.65
2022-09-24T03:34:09.317Z,12.64
2022-09-24T03:35:09.234Z,12.65
2022-09-24T03:36:09.236Z,12.64
2022-09-24T03:37:09.219Z,12.64
2022-09-24T03:38:09.267Z,12.64
2022-09-24T03:39:09.191Z,12.64
2022-09-24T03:40:09.288Z,12.64
2022-09-24T03:41:09.179Z,12.64
2022-09-24T03:42:09.171Z,12.62
2022-09-24T03:43:09.157Z,12.64
2022-09-24T03:44:09.259Z,12.65
2022-09-24T03:45:09.131Z,12.67
2022-09-24T03:46:09.266Z,12.68
2022-09-24T03:47:09.111Z,12.67
2022-09-24T03:48:09.144Z,12.67
2022-09-24T03:49:09.072Z,12.68
2022-09-24T03:50:09.105Z,12.68
2022-09-24T03:51:09.064Z,12.70
2022-09-24T03:52:09.064Z,12.70
2022-09-24T03:53:09.031Z,12.70
2022-09-24T03:54:09.110Z,12.70
2022-09-24T03:55:09.003Z,12.70
2022-09-24T03:56:09.003Z,12.72
2022-09-24T03:57:09.015Z,12.68
2022-09-24T03:58:09.003Z,12.70
2022-09-24T03:59:08.966Z,12.68
2022-09-24T04:00:08.959Z,12.67
2022-09-24T04:01:08.969Z,12.65
2022-09-24T04:02:09.078Z,12.64
2022-09-24T04:03:08.961Z,12.65
2022-09-24T04:04:08.948Z,12.64
2022-09-24T04:05:08.889Z,12.64
2022-09-24T04:06:08.893Z,12.62
2022-09-24T04:07:08.895Z,12.61
2022-09-24T04:08:08.886Z,12.61
2022-09-24T04:09:08.843Z,12.58
2022-09-24T04:10:08.855Z,12.55
2022-09-24T04:11:08.850Z,12.55
2022-09-24T04:12:08.839Z,12.54
2022-09-24T04:13:08.823Z,12.54
2022-09-24T04:14:08.853Z,12.53
2022-09-24T04:15:08.784Z,12.53
2022-09-24T04:16:08.849Z,12.50
2022-09-24T04:17:08.767Z,12.50
2022-09-24T04:18:08.779Z,12.50
2022-09-24T04:19:08.743Z,12.47
2022-09-24T04:20:08.736Z,12.49
2022-09-24T04:21:08.716Z,12.50
2022-09-24T04:22:08.718Z,12.50
2022-09-24T04:23:08.715Z,12.49
2022-09-24T04:24:08.723Z,12.47
2022-09-24T04:25:13.985Z,12.47
2022-09-24T04:26:09.688Z,12.49
2022-09-24T04:27:08.648Z,12.47
2022-09-24T04:28:08.648Z,12.47
2022-09-24T04:29:08.629Z,12.47
2022-09-24T04:30:08.876Z,12.47
2022-09-24T04:31:08.673Z,12.47
2022-09-24T04:32:08.596Z,12.49
2022-09-24T04:33:08.613Z,12.50
2022-09-24T04:34:08.637Z,12.50
2022-09-24T04:35:08.556Z,12.50
2022-09-24T04:36:08.556Z,12.50
2022-09-24T04:37:08.536Z,12.50
2022-09-24T04:38:08.546Z,12.49
2022-09-24T04:40:18.416Z,12.49
2022-09-24T04:41:18.425Z,12.46
2022-09-24T04:42:18.330Z,12.45
2022-09-24T04:43:18.332Z,12.40
2022-09-24T04:44:18.317Z,12.40
2022-09-24T04:45:18.321Z,12.39
2022-09-24T04:46:18.314Z,12.37
2022-09-24T04:47:18.281Z,12.37
2022-09-24T04:48:18.324Z,12.37
2022-09-24T04:49:18.253Z,12.37
2022-09-24T04:50:18.252Z,12.37
2022-09-24T04:51:18.232Z,12.39
2022-09-24T04:52:18.217Z,12.37
2022-09-24T04:53:18.272Z,12.37
2022-09-24T04:54:18.198Z,12.39
2022-09-24T04:55:18.213Z,12.37
2022-09-24T04:56:18.167Z,12.40
2022-09-24T04:57:18.168Z,12.40
2022-09-24T04:58:18.145Z,12.37
2022-09-24T04:59:18.145Z,12.37
2022-09-24T05:00:18.157Z,12.36
2022-09-24T05:01:18.213Z,12.35
2022-09-24T05:02:18.223Z,12.37
2022-09-24T05:03:18.179Z,12.35
2022-09-24T05:04:18.084Z,12.35
2022-09-24T05:05:18.085Z,12.32
2022-09-24T05:06:18.073Z,12.32
2022-09-24T05:07:18.064Z,12.35
2022-09-24T05:08:18.037Z,12.32
2022-09-24T05:09:18.301Z,12.29
2022-09-24T05:10:18.012Z,12.29
2022-09-24T05:11:18.032Z,12.28
2022-09-24T05:12:17.996Z,12.27
2022-09-24T05:13:17.984Z,12.27
2022-09-24T05:14:17.965Z,12.27
2022-09-24T05:15:17.965Z,12.25
2022-09-24T05:16:18.005Z,12.25
2022-09-24T05:17:17.951Z,12.24
2022-09-24T05:18:17.928Z,12.22
2022-09-24T05:19:17.917Z,12.22
2022-09-24T05:20:17.897Z,12.24
2022-09-24T05:21:17.897Z,12.22
2022-09-24T05:22:17.897Z,12.22
2022-09-24T05:23:17.897Z,12.22
2022-09-24T05:24:17.857Z,12.22
2022-09-24T05:25:17.857Z,12.24
2022-09-24T05:26:17.860Z,12.24
2022-09-24T05:27:17.837Z,12.24
2022-09-24T05:28:17.834Z,12.24
2022-09-24T05:29:17.837Z,12.21
2022-09-24T05:30:17.846Z,12.22
2022-09-24T05:31:17.940Z,12.22
2022-09-24T05:32:17.808Z,12.21
2022-09-24T05:33:17.878Z,12.21
2022-09-24T05:34:17.811Z,12.21
2022-09-24T05:35:17.928Z,12.20
2022-09-24T05:36:17.853Z,12.20
2022-09-24T05:37:17.837Z,12.21
2022-09-24T05:38:17.891Z,12.22
2022-09-24T05:39:17.815Z,12.21
2022-09-24T05:40:18.009Z,12.21
2022-09-24T05:41:17.848Z,12.21
2022-09-24T05:42:17.658Z,12.21
2022-09-24T05:43:17.871Z,12.21
2022-09-24T05:44:17.683Z,12.21
2022-09-24T05:45:17.722Z,12.20
2022-09-24T05:46:17.653Z,12.18
2022-09-24T05:47:17.911Z,12.20
2022-09-24T05:48:17.610Z,12.18
2022-09-24T05:49:17.601Z,12.20
2022-09-24T05:50:17.582Z,12.18
2022-09-24T05:51:17.769Z,12.18
2022-09-24T05:52:17.659Z,12.20
2022-09-24T05:53:17.683Z,12.21
2022-09-24T05:54:17.905Z,12.20
2022-09-24T05:55:17.689Z,12.21
2022-09-24T05:56:17.908Z,12.21
2022-09-24T05:57:18.390Z,12.21
2022-09-24T05:58:17.947Z,12.21
2022-09-24T05:59:17.742Z,12.21
2022-09-24T06:00:17.722Z,12.20
2022-09-24T06:01:17.730Z,12.20
2022-09-24T06:02:17.823Z,12.20
2022-09-24T06:03:17.535Z,12.20
2022-09-24T06:04:17.446Z,12.21
2022-09-24T06:05:17.411Z,12.22
2022-09-24T06:06:17.422Z,12.21
2022-09-24T06:07:17.392Z,12.21
2022-09-24T06:08:17.396Z,12.20
2022-09-24T06:09:17.367Z,12.21
2022-09-24T06:10:17.382Z,12.21
2022-09-24T06:11:17.339Z,12.20
2022-09-24T06:12:17.329Z,12.21
2022-09-24T06:13:17.377Z,12.22
2022-09-24T06:14:17.305Z,12.24
2022-09-24T06:15:17.311Z,12.25
2022-09-24T06:16:17.347Z,12.28
2022-09-24T06:17:17.502Z,12.28
2022-09-24T06:18:17.264Z,12.28
2022-09-24T06:19:17.243Z,12.29
2022-09-24T06:20:17.243Z,12.31
2022-09-24T06:21:17.230Z,12.32
2022-09-24T06:22:17.230Z,12.32
2022-09-24T06:23:17.199Z,12.36
2022-09-24T06:24:17.203Z,12.36
2022-09-24T06:25:17.198Z,12.36
2022-09-24T06:26:17.183Z,12.37
2022-09-24T06:27:17.150Z,12.39
2022-09-24T06:28:17.163Z,12.40
2022-09-24T06:29:17.136Z,12.42
2022-09-24T06:30:17.154Z,12.43
2022-09-24T06:31:17.179Z,12.45
2022-09-24T06:32:17.113Z,12.45
2022-09-24T06:33:17.113Z,12.47
2022-09-24T06:34:17.093Z,12.49
2022-09-24T06:35:17.063Z,12.49
2022-09-24T06:36:17.087Z,12.49
2022-09-24T06:37:17.077Z,12.49
2022-09-24T06:38:17.045Z,12.49
2022-09-24T06:39:17.023Z,12.49
2022-09-24T06:40:17.169Z,12.49
2022-09-24T06:41:17.000Z,12.50
2022-09-24T06:42:17.004Z,12.50
2022-09-24T06:43:16.972Z,12.53
2022-09-24T06:44:16.976Z,12.53
2022-09-24T06:45:16.955Z,12.53
2022-09-24T06:46:16.966Z,12.54
2022-09-24T06:47:16.936Z,12.53
2022-09-24T06:48:16.933Z,12.54
2022-09-24T06:49:16.924Z,12.55
2022-09-24T06:50:16.916Z,12.58
2022-09-24T06:51:16.916Z,12.60
2022-09-24T06:52:16.909Z,12.61
2022-09-24T06:53:16.864Z,12.65
2022-09-24T06:54:16.896Z,12.65
2022-09-24T06:55:16.884Z,12.67
2022-09-24T06:56:16.844Z,12.70
2022-09-24T06:57:16.832Z,12.72
2022-09-24T06:58:16.816Z,12.75
2022-09-24T06:59:16.794Z,12.78
2022-09-24T07:00:16.796Z,12.79
2022-09-24T07:01:16.816Z,12.80
2022-09-24T07:02:16.783Z,12.82
2022-09-24T07:03:16.765Z,12.82
2022-09-24T07:04:16.747Z,12.83
2022-09-24T07:05:16.725Z,12.83
2022-09-24T07:06:16.739Z,12.85
2022-09-24T07:07:16.706Z,12.87
2022-09-24T07:08:16.694Z,12.91
2022-09-24T07:09:16.706Z,12.93
2022-09-24T07:10:16.686Z,12.94
2022-09-24T07:11:16.740Z,12.95
2022-09-24T07:12:16.663Z,12.98
2022-09-24T07:13:16.647Z,12.98
2022-09-24T07:14:16.637Z,13.00
2022-09-24T07:15:16.623Z,13.03
2022-09-24T07:16:16.694Z,13.03
2022-09-24T07:17:16.595Z,13.03
2022-09-24T07:18:16.603Z,13.05
2022-09-24T07:19:16.598Z,13.09
2022-09-24T07:20:16.575Z,13.11
2022-09-24T07:21:16.656Z,13.11
2022-09-24T07:22:16.715Z,13.11
2022-09-24T07:23:16.675Z,13.11
2022-09-24T07:24:16.716Z,13.11
2022-09-24T07:25:16.676Z,13.15
2022-09-24T07:26:16.756Z,13.18
2022-09-24T07:27:16.732Z,13.19
2022-09-24T07:28:16.476Z,13.22
2022-09-24T07:29:16.468Z,13.25
2022-09-24T07:30:16.456Z,13.28
2022-09-24T07:31:16.506Z,13.28
2022-09-24T07:32:16.492Z,13.31
2022-09-24T07:33:16.411Z,13.35
2022-09-24T07:34:16.420Z,13.37
2022-09-24T07:35:16.392Z,13.42
2022-09-24T07:36:16.420Z,13.46
2022-09-24T07:37:17.569Z,13.50
2022-09-24T07:38:16.396Z,13.54
2022-09-24T07:39:16.348Z,13.59
2022-09-24T07:40:16.403Z,13.63
2022-09-24T07:41:16.348Z,13.63
2022-09-24T07:42:16.329Z,13.70
2022-09-24T07:43:16.319Z,13.72
2022-09-24T07:44:16.332Z,13.74
2022-09-24T07:45:16.289Z,13.72
2022-09-24T07:46:16.334Z,13.72
2022-09-24T07:47:16.268Z,13.74
2022-09-24T07:48:16.260Z,13.77
2022-09-24T07:49:16.240Z,13.81
2022-09-24T07:50:16.280Z,13.85
2022-09-24T07:51:16.220Z,13.87
2022-09-24T07:52:16.220Z,13.89
2022-09-24T07:53:16.192Z,13.92
2022-09-24T07:54:17.352Z,13.92
2022-09-24T07:55:16.168Z,13.90
2022-09-24T07:56:16.191Z,13.90
2022-09-24T07:57:16.148Z,13.90
2022-09-24T07:58:16.148Z,13.92
2022-09-24T07:59:16.129Z,13.93
2022-09-24T08:00:16.124Z,13.93
2022-09-24T08:01:16.131Z,13.96
2022-09-24T08:02:16.120Z,13.99
2022-09-24T08:03:16.095Z,14.04
2022-09-24T08:04:16.136Z,14.07
2022-09-24T08:05:16.061Z,14.11
2022-09-24T08:06:16.072Z,14.11
2022-09-24T08:07:16.034Z,14.12
2022-09-24T08:08:16.041Z,14.15
2022-09-24T08:09:16.020Z,14.20
2022-09-24T08:10:16.013Z,14.25
2022-09-24T08:11:15.997Z,14.26
2022-09-24T08:12:16.001Z,14.29
2022-09-24T08:13:15.972Z,14.32
2022-09-24T08:14:15.985Z,14.36
2022-09-24T08:15:15.955Z,14.40
2022-09-24T08:16:15.988Z,14.44
2022-09-24T08:17:15.962Z,14.48
2022-09-24T08:18:15.921Z,14.50
2022-09-24T08:19:15.902Z,14.50
2022-09-24T08:20:15.901Z,14.47
2022-09-24T08:21:15.881Z,14.50
2022-09-24T08:22:23.006Z,14.50
2022-09-24T08:23:15.859Z,14.53
2022-09-24T08:24:22.339Z,14.51
2022-09-24T08:25:15.827Z,14.55
2022-09-24T08:26:15.848Z,14.58
2022-09-24T08:27:17.531Z,14.62
2022-09-24T08:28:15.818Z,14.59
2022-09-24T08:29:15.818Z,14.60
2022-09-24T08:30:15.789Z,14.60
2022-09-24T08:31:15.816Z,14.62
2022-09-24T08:32:15.766Z,14.68
2022-09-24T08:33:15.750Z,14.70
2022-09-24T08:34:15.746Z,14.73
2022-09-24T08:35:15.754Z,14.78
2022-09-24T08:36:15.718Z,14.79
2022-09-24T08:37:15.697Z,14.81
2022-09-24T08:38:15.699Z,14.77
2022-09-24T08:39:15.680Z,14.72
2022-09-24T08:40:15.748Z,14.72
2022-09-24T08:41:15.661Z,14.73
2022-09-24T08:42:15.648Z,14.79
2022-09-24T08:43:15.640Z,14.78
2022-09-24T08:44:15.628Z,14.78
2022-09-24T08:45:15.720Z,14.73
2022-09-24T08:46:16.259Z,14.77
2022-09-24T08:47:15.600Z,14.77
2022-09-24T08:48:15.579Z,14.77
2022-09-24T08:49:15.553Z,14.79
2022-09-24T08:50:15.572Z,14.81
2022-09-24T08:51:15.552Z,14.81
2022-09-24T08:52:15.561Z,14.81
2022-09-24T08:53:15.530Z,14.78
2022-09-24T08:54:15.520Z,14.78
2022-09-24T08:55:15.491Z,14.78
2022-09-24T08:56:15.501Z,14.78
2022-09-24T08:57:15.480Z,14.82
2022-09-24T08:58:15.527Z,14.82
2022-09-24T08:59:15.459Z,14.84
2022-09-24T09:00:15.442Z,14.78
2022-09-24T09:01:15.576Z,14.69
2022-09-24T09:02:15.549Z,14.69
2022-09-24T09:03:15.446Z,14.73
2022-09-24T09:04:15.411Z,14.73
2022-09-24T09:05:15.391Z,14.78
2022-09-24T09:06:15.384Z,14.79
2022-09-24T09:07:15.371Z,14.82
2022-09-24T09:08:42.107Z,14.85
2022-09-24T09:09:16.390Z,14.89
2022-09-24T09:10:15.332Z,14.91
2022-09-24T09:11:15.313Z,14.96
2022-09-24T09:12:15.332Z,15.00
2022-09-24T09:13:15.324Z,15.03
2022-09-24T09:14:15.298Z,15.07
2022-09-24T09:15:15.284Z,15.10
2022-09-24T09:16:15.325Z,15.14
2022-09-24T09:17:15.245Z,15.17
2022-09-24T09:18:15.261Z,15.18
2022-09-24T09:19:15.245Z,15.25
2022-09-24T09:20:15.232Z,15.28
2022-09-24T09:21:15.204Z,15.33
2022-09-24T09:22:15.214Z,15.42
2022-09-24T09:23:15.216Z,15.40
2022-09-24T09:24:15.189Z,15.42
2022-09-24T09:25:15.160Z,15.40
2022-09-24T09:26:15.158Z,15.43
2022-09-24T09:27:15.139Z,15.46
2022-09-24T09:28:15.205Z,15.46
2022-09-24T09:29:15.145Z,15.49
2022-09-24T09:30:15.135Z,15.51
2022-09-24T09:31:15.196Z,15.52
2022-09-24T09:32:15.106Z,15.54
2022-09-24T09:33:15.097Z,15.61
2022-09-24T09:34:15.073Z,15.64
2022-09-24T09:35:15.077Z,15.64
2022-09-24T09:36:15.050Z,15.72
2022-09-24T09:37:15.029Z,15.75
2022-09-24T09:38:15.029Z,15.79
2022-09-24T09:39:15.023Z,15.80
2022-09-24T09:40:15.079Z,15.82
2022-09-24T09:41:14.984Z,15.83
2022-09-24T09:42:14.979Z,15.88
2022-09-24T09:43:14.959Z,15.94
2022-09-24T09:44:14.977Z,16.00
2022-09-24T09:45:14.948Z,16.02
2022-09-24T09:46:15.527Z,16.05
2022-09-24T09:47:14.918Z,16.13
2022-09-24T09:48:14.937Z,16.23
2022-09-24T09:49:14.909Z,16.35
2022-09-24T09:50:14.942Z,16.41
2022-09-24T09:51:18.703Z,16.38
2022-09-24T09:52:15.871Z,16.49
2022-09-24T09:53:14.848Z,16.53
2022-09-24T09:54:14.861Z,16.53
2022-09-24T09:55:14.865Z,16.53
2022-09-24T09:56:14.848Z,16.57
2022-09-24T09:57:14.808Z,16.66
2022-09-24T09:58:14.801Z,16.74
2022-09-24T09:59:14.780Z,16.76
2022-09-24T10:00:14.782Z,16.81
2022-09-24T10:01:14.760Z,16.90
2022-09-24T10:02:14.846Z,16.94
2022-09-24T10:03:14.861Z,17.01
2022-09-24T10:04:14.740Z,16.90
2022-09-24T10:05:18.706Z,16.76
2022-09-24T10:06:15.716Z,16.74
2022-09-24T10:07:14.702Z,16.79
2022-09-24T10:08:14.681Z,16.84
2022-09-24T10:09:14.686Z,16.81
2022-09-24T10:10:14.729Z,16.81
2022-09-24T10:11:14.653Z,16.81
2022-09-24T10:12:14.684Z,16.83
2022-09-24T10:13:14.620Z,16.79
2022-09-24T10:14:14.622Z,16.68
2022-09-24T10:15:14.616Z,16.50
2022-09-24T10:16:14.644Z,16.49
2022-09-24T10:17:14.602Z,16.50
2022-09-24T10:18:14.583Z,16.43
2022-09-24T10:19:14.592Z,16.36
2022-09-24T10:20:14.634Z,16.33
2022-09-24T10:21:14.554Z,16.24
2022-09-24T10:22:14.521Z,16.23
2022-09-24T10:23:14.527Z,16.20
2022-09-24T10:24:14.506Z,16.28
2022-09-24T10:25:14.503Z,16.32
2022-09-24T10:26:14.486Z,16.38
2022-09-24T10:27:14.478Z,16.43
2022-09-24T10:28:14.475Z,16.43
2022-09-24T10:29:14.463Z,16.36
2022-09-24T10:30:14.517Z,16.33
2022-09-24T10:31:14.484Z,16.35
2022-09-24T10:32:14.415Z,16.38
2022-09-24T10:33:14.408Z,16.36
2022-09-24T10:34:14.394Z,16.33
2022-09-24T10:35:14.415Z,16.39
2022-09-24T10:36:14.378Z,16.33
2022-09-24T10:37:14.366Z,16.21
2022-09-24T10:38:14.347Z,16.09
2022-09-24T10:39:14.338Z,16.01
2022-09-24T10:40:23.156Z,16.05
2022-09-24T10:41:14.335Z,16.09
2022-09-24T10:42:14.295Z,16.05
2022-09-24T10:43:14.367Z,16.09
2022-09-24T10:44:14.310Z,16.13
2022-09-24T10:45:14.329Z,16.05
2022-09-24T10:46:14.382Z,16.09
2022-09-24T10:47:14.260Z,16.17
2022-09-24T10:48:14.239Z,16.20
2022-09-24T10:49:14.234Z,16.21
2022-09-24T10:50:14.226Z,16.12
2022-09-24T10:51:14.407Z,16.10
2022-09-24T10:52:14.251Z,16.12
2022-09-24T10:53:14.206Z,16.09
2022-09-24T10:54:14.212Z,16.13
2022-09-24T10:55:14.186Z,16.21
2022-09-24T10:56:14.179Z,16.28
2022-09-24T10:57:14.160Z,16.32
2022-09-24T10:58:14.203Z,16.29
2022-09-24T10:59:14.210Z,16.33
2022-09-24T11:00:14.149Z,16.31
2022-09-24T11:01:14.168Z,16.35
2022-09-24T11:02:14.145Z,16.39
2022-09-24T11:03:14.122Z,16.41
2022-09-24T11:04:14.068Z,16.41
2022-09-24T11:05:14.079Z,16.42
2022-09-24T11:06:14.155Z,16.42
2022-09-24T11:07:14.103Z,16.43
2022-09-24T11:08:14.044Z,16.39
2022-09-24T11:09:14.106Z,16.42
2022-09-24T11:10:14.042Z,16.47
2022-09-24T11:11:13.999Z,16.47
2022-09-24T11:12:14.012Z,16.50
2022-09-24T11:13:14.087Z,16.51
2022-09-24T11:14:14.007Z,16.53
2022-09-24T11:15:14.047Z,16.54
2022-09-24T11:16:14.047Z,16.53
2022-09-24T11:17:13.991Z,16.53
2022-09-24T11:18:13.912Z,16.54
2022-09-24T11:19:13.919Z,16.53
2022-09-24T11:20:13.904Z,16.57
2022-09-24T11:21:13.983Z,16.57
2022-09-24T11:22:13.939Z,16.57
2022-09-24T11:23:13.883Z,16.57
2022-09-24T11:24:13.884Z,16.51
2022-09-24T11:25:13.870Z,16.51
2022-09-24T11:26:14.512Z,16.57
2022-09-24T11:27:13.822Z,16.61
2022-09-24T11:28:13.842Z,16.58
2022-09-24T11:29:13.862Z,16.56
2022-09-24T11:30:13.797Z,16.54
2022-09-24T11:31:13.866Z,16.54
2022-09-24T11:32:13.861Z,16.54
2022-09-24T11:33:13.784Z,16.60
2022-09-24T11:34:13.736Z,16.57
2022-09-24T11:35:13.753Z,16.54
2022-09-24T11:36:13.828Z,16.54
2022-09-24T11:37:13.772Z,16.58
2022-09-24T11:38:13.782Z,16.65
2022-09-24T11:39:13.877Z,16.68
2022-09-24T11:40:13.945Z,16.66
2022-09-24T11:41:13.679Z,16.57
2022-09-24T11:42:13.635Z,16.60
2022-09-24T11:43:13.782Z,16.61
2022-09-24T11:44:13.720Z,16.66
2022-09-24T11:45:13.630Z,16.64
2022-09-24T11:46:13.674Z,16.61
2022-09-24T11:47:13.605Z,16.64
2022-09-24T11:48:13.589Z,16.61
2022-09-24T11:49:13.581Z,16.64
2022-09-24T11:50:13.598Z,16.64
2022-09-24T11:51:13.566Z,16.61
2022-09-24T11:52:13.594Z,16.61
2022-09-24T11:53:13.524Z,16.56
2022-09-24T11:54:13.526Z,16.58
2022-09-24T11:55:13.519Z,16.60
2022-09-24T11:56:13.749Z,16.53
2022-09-24T11:57:13.489Z,16.50
2022-09-24T11:58:13.509Z,16.51
2022-09-24T11:59:13.534Z,16.53
2022-09-24T12:00:13.473Z,16.56
2022-09-24T12:01:13.498Z,16.54
2022-09-24T12:02:13.470Z,16.51
2022-09-24T12:03:13.464Z,16.49
2022-09-24T12:04:13.390Z,16.47
2022-09-24T12:05:13.534Z,16.47
2022-09-24T12:06:13.434Z,16.46
2022-09-24T12:07:13.400Z,16.46
2022-09-24T12:08:13.349Z,16.47
2022-09-24T12:09:13.349Z,16.41
2022-09-24T12:10:13.353Z,16.39
2022-09-24T12:11:13.341Z,16.39
2022-09-24T12:12:13.310Z,16.41
2022-09-24T12:13:13.320Z,16.42
2022-09-24T12:14:13.346Z,16.47
2022-09-24T12:15:13.502Z,16.49
2022-09-24T12:16:13.374Z,16.53
2022-09-24T12:17:13.325Z,16.54
2022-09-24T12:18:13.321Z,16.60
2022-09-24T12:19:13.237Z,16.64
2022-09-24T12:20:13.213Z,16.66
2022-09-24T12:21:13.293Z,16.69
2022-09-24T12:22:13.241Z,16.72
2022-09-24T12:23:13.230Z,16.74
2022-09-24T12:24:13.320Z,16.76
2022-09-24T12:25:13.161Z,16.78
2022-09-24T12:26:13.154Z,16.84
2022-09-24T12:27:13.161Z,16.87
2022-09-24T12:28:13.153Z,16.87
2022-09-24T12:29:13.162Z,16.87
2022-09-24T12:30:13.200Z,16.87
2022-09-24T12:31:13.186Z,16.90
2022-09-24T12:32:13.276Z,16.86
2022-09-24T12:33:13.122Z,16.87
2022-09-24T12:34:13.075Z,16.91
2022-09-24T12:35:13.162Z,16.90
2022-09-24T12:36:13.115Z,16.86
2022-09-24T12:37:13.102Z,16.86
2022-09-24T12:38:13.053Z,16.84
2022-09-24T12:39:13.026Z,16.83
2022-09-24T12:40:13.042Z,16.79
2022-09-24T12:41:12.996Z,16.68
2022-09-24T12:42:13.062Z,16.58
2022-09-24T12:43:13.046Z,16.57
2022-09-24T12:44:14.481Z,16.56
2022-09-24T12:45:13.006Z,16.53
2022-09-24T12:46:12.992Z,16.51
2022-09-24T12:47:12.957Z,16.54
2022-09-24T12:48:13.006Z,16.53
2022-09-24T12:49:13.052Z,16.53
2022-09-24T12:50:12.898Z,16.53
2022-09-24T12:51:13.014Z,16.50
2022-09-24T12:52:13.806Z,16.47
2022-09-24T12:53:12.886Z,16.43